sensor_id;sensor_type;location;lat;lon;timestamp;P1;durP1;ratioP1;P2;durP2;ratioP2
60169;SDS011;46042;49.444;6.862;2024-02-04T00:01:55;2.72;;;1.90;;
60169;SDS011;46042;49.444;6.862;2024-02-04T00:04:22;3.05;;;1.90;;
60169;SDS011;46042;49.444;6.862;2024-02-04T00:06:50;3.17;;;2.08;;
60169;SDS011;46042;49.444;6.862;2024-02-04T00:09:17;3.80;;;1.65;;
60169;SDS011;46042;49.444;6.862;2024-02-04T00:11:45;2.13;;;1.40;;
60169;SDS011;46042;49.444;6.862;2024-02-04T00:14:12;3.92;;;1.90;;
60169;SDS011;46042;49.444;6.862;2024-02-04T00:16:39;2.33;;;1.92;;
60169;SDS011;46042;49.444;6.862;2024-02-04T00:19:05;2.88;;;1.92;;
60169;SDS011;46042;49.444;6.862;2024-02-04T00:21:32;2.25;;;1.70;;
60169;SDS011;46042;49.444;6.862;2024-02-04T00:23:59;5.25;;;2.28;;
60169;SDS011;46042;49.444;6.862;2024-02-04T00:26:26;4.20;;;2.30;;
60169;SDS011;46042;49.444;6.862;2024-02-04T00:28:52;3.28;;;2.08;;
60169;SDS011;46042;49.444;6.862;2024-02-04T00:31:19;2.92;;;2.17;;
60169;SDS011;46042;49.444;6.862;2024-02-04T00:33:45;3.45;;;2.33;;
60169;SDS011;46042;49.444;6.862;2024-02-04T00:36:12;4.18;;;2.55;;
60169;SDS011;46042;49.444;6.862;2024-02-04T00:38:39;3.63;;;2.28;;
60169;SDS011;46042;49.444;6.862;2024-02-04T00:41:06;3.03;;;2.22;;
60169;SDS011;46042;49.444;6.862;2024-02-04T00:43:32;6.53;;;2.47;;
60169;SDS011;46042;49.444;6.862;2024-02-04T00:45:59;3.55;;;2.53;;
60169;SDS011;46042;49.444;6.862;2024-02-04T00:48:27;3.47;;;2.55;;
60169;SDS011;46042;49.444;6.862;2024-02-04T00:50:54;3.45;;;2.53;;
60169;SDS011;46042;49.444;6.862;2024-02-04T00:53:21;3.60;;;2.30;;
60169;SDS011;46042;49.444;6.862;2024-02-04T00:55:48;4.75;;;2.85;;
60169;SDS011;46042;49.444;6.862;2024-02-04T00:58:14;5.25;;;2.75;;
60169;SDS011;46042;49.444;6.862;2024-02-04T01:00:41;3.83;;;2.42;;
60169;SDS011;46042;49.444;6.862;2024-02-04T01:03:07;3.92;;;2.47;;
60169;SDS011;46042;49.444;6.862;2024-02-04T01:05:34;3.40;;;2.38;;
60169;SDS011;46042;49.444;6.862;2024-02-04T01:08:01;6.30;;;3.17;;
60169;SDS011;46042;49.444;6.862;2024-02-04T01:10:28;4.75;;;2.70;;
60169;SDS011;46042;49.444;6.862;2024-02-04T01:12:54;5.07;;;2.35;;
60169;SDS011;46042;49.444;6.862;2024-02-04T01:15:21;4.70;;;2.97;;
60169;SDS011;46042;49.444;6.862;2024-02-04T01:17:48;3.85;;;2.20;;
60169;SDS011;46042;49.444;6.862;2024-02-04T01:20:14;3.88;;;2.53;;
60169;SDS011;46042;49.444;6.862;2024-02-04T01:22:41;4.95;;;2.42;;
60169;SDS011;46042;49.444;6.862;2024-02-04T01:25:08;5.10;;;2.58;;
60169;SDS011;46042;49.444;6.862;2024-02-04T01:27:34;4.40;;;2.65;;
60169;SDS011;46042;49.444;6.862;2024-02-04T01:30:01;4.72;;;2.40;;
60169;SDS011;46042;49.444;6.862;2024-02-04T01:32:28;4.38;;;2.67;;
60169;SDS011;46042;49.444;6.862;2024-02-04T01:34:55;5.88;;;2.55;;
60169;SDS011;46042;49.444;6.862;2024-02-04T01:37:21;6.38;;;2.88;;
60169;SDS011;46042;49.444;6.862;2024-02-04T01:39:48;4.45;;;2.70;;
60169;SDS011;46042;49.444;6.862;2024-02-04T01:42:15;2.90;;;2.33;;
60169;SDS011;46042;49.444;6.862;2024-02-04T01:44:42;3.92;;;2.45;;
60169;SDS011;46042;49.444;6.862;2024-02-04T01:47:09;7.10;;;2.30;;
60169;SDS011;46042;49.444;6.862;2024-02-04T01:49:36;17.88;;;2.35;;
60169;SDS011;46042;49.444;6.862;2024-02-04T01:52:05;6.43;;;3.28;;
60169;SDS011;46042;49.444;6.862;2024-02-04T01:54:34;6.25;;;2.17;;
60169;SDS011;46042;49.444;6.862;2024-02-04T01:57:01;3.40;;;2.33;;
60169;SDS011;46042;49.444;6.862;2024-02-04T01:59:29;6.00;;;2.78;;
60169;SDS011;46042;49.444;6.862;2024-02-04T02:02:00;3.33;;;1.88;;
60169;SDS011;46042;49.444;6.862;2024-02-04T02:04:27;4.13;;;2.20;;
60169;SDS011;46042;49.444;6.862;2024-02-04T02:06:54;3.08;;;1.92;;
60169;SDS011;46042;49.444;6.862;2024-02-04T02:09:21;3.28;;;1.95;;
60169;SDS011;46042;49.444;6.862;2024-02-04T02:11:51;4.00;;;2.00;;
60169;SDS011;46042;49.444;6.862;2024-02-04T02:14:24;2.47;;;1.63;;
60169;SDS011;46042;49.444;6.862;2024-02-04T02:16:57;2.53;;;1.67;;
60169;SDS011;46042;49.444;6.862;2024-02-04T02:22:24;5.63;;;1.98;;
60169;SDS011;46042;49.444;6.862;2024-02-04T02:24:57;3.10;;;1.80;;
60169;SDS011;46042;49.444;6.862;2024-02-04T02:27:25;2.65;;;1.60;;
60169;SDS011;46042;49.444;6.862;2024-02-04T02:29:52;1.50;;;1.23;;
60169;SDS011;46042;49.444;6.862;2024-02-04T02:32:19;2.72;;;1.95;;
60169;SDS011;46042;49.444;6.862;2024-02-04T02:34:46;3.55;;;1.80;;
60169;SDS011;46042;49.444;6.862;2024-02-04T02:39:59;5.25;;;1.67;;
60169;SDS011;46042;49.444;6.862;2024-02-04T02:42:32;3.28;;;1.45;;
60169;SDS011;46042;49.444;6.862;2024-02-04T02:45:00;1.35;;;1.20;;
60169;SDS011;46042;49.444;6.862;2024-02-04T02:47:28;2.65;;;1.60;;
60169;SDS011;46042;49.444;6.862;2024-02-04T02:49:56;2.72;;;1.80;;
60169;SDS011;46042;49.444;6.862;2024-02-04T02:52:23;1.20;;;1.10;;
60169;SDS011;46042;49.444;6.862;2024-02-04T02:54:50;1.73;;;1.38;;
60169;SDS011;46042;49.444;6.862;2024-02-04T02:57:16;3.28;;;1.52;;
60169;SDS011;46042;49.444;6.862;2024-02-04T02:59:43;5.70;;;1.73;;
60169;SDS011;46042;49.444;6.862;2024-02-04T03:02:10;2.55;;;1.75;;
60169;SDS011;46042;49.444;6.862;2024-02-04T03:04:37;2.70;;;1.55;;
60169;SDS011;46042;49.444;6.862;2024-02-04T03:07:05;2.50;;;1.80;;
60169;SDS011;46042;49.444;6.862;2024-02-04T03:09:34;2.40;;;1.92;;
60169;SDS011;46042;49.444;6.862;2024-02-04T03:12:00;2.50;;;1.77;;
60169;SDS011;46042;49.444;6.862;2024-02-04T03:14:27;2.80;;;1.85;;
60169;SDS011;46042;49.444;6.862;2024-02-04T03:16:54;4.90;;;2.38;;
60169;SDS011;46042;49.444;6.862;2024-02-04T03:19:20;3.67;;;2.63;;
60169;SDS011;46042;49.444;6.862;2024-02-04T03:21:47;4.93;;;2.65;;
60169;SDS011;46042;49.444;6.862;2024-02-04T03:24:14;4.57;;;2.55;;
60169;SDS011;46042;49.444;6.862;2024-02-04T03:26:42;4.18;;;2.42;;
60169;SDS011;46042;49.444;6.862;2024-02-04T03:29:08;4.32;;;2.50;;
60169;SDS011;46042;49.444;6.862;2024-02-04T03:31:35;3.90;;;2.58;;
60169;SDS011;46042;49.444;6.862;2024-02-04T03:34:02;5.88;;;2.80;;
60169;SDS011;46042;49.444;6.862;2024-02-04T03:36:30;5.20;;;2.92;;
60169;SDS011;46042;49.444;6.862;2024-02-04T03:38:57;3.88;;;2.47;;
60169;SDS011;46042;49.444;6.862;2024-02-04T03:41:24;6.75;;;3.10;;
60169;SDS011;46042;49.444;6.862;2024-02-04T03:43:51;3.78;;;2.50;;
60169;SDS011;46042;49.444;6.862;2024-02-04T03:46:19;8.45;;;2.97;;
60169;SDS011;46042;49.444;6.862;2024-02-04T03:48:46;10.23;;;2.97;;
60169;SDS011;46042;49.444;6.862;2024-02-04T03:51:16;5.10;;;2.53;;
60169;SDS011;46042;49.444;6.862;2024-02-04T03:53:45;5.60;;;3.22;;
60169;SDS011;46042;49.444;6.862;2024-02-04T03:56:12;4.78;;;2.97;;
60169;SDS011;46042;49.444;6.862;2024-02-04T03:58:39;4.75;;;3.05;;
60169;SDS011;46042;49.444;6.862;2024-02-04T04:01:09;7.80;;;2.92;;
60169;SDS011;46042;49.444;6.862;2024-02-04T04:03:40;7.53;;;3.10;;
60169;SDS011;46042;49.444;6.862;2024-02-04T04:06:08;5.85;;;3.47;;
60169;SDS011;46042;49.444;6.862;2024-02-04T04:08:37;6.40;;;2.50;;
60169;SDS011;46042;49.444;6.862;2024-02-04T04:11:05;8.80;;;3.25;;
60169;SDS011;46042;49.444;6.862;2024-02-04T04:13:34;4.13;;;2.65;;
60169;SDS011;46042;49.444;6.862;2024-02-04T04:16:02;4.75;;;2.75;;
60169;SDS011;46042;49.444;6.862;2024-02-04T04:18:30;5.03;;;3.03;;
60169;SDS011;46042;49.444;6.862;2024-02-04T04:20:56;13.27;;;3.38;;
60169;SDS011;46042;49.444;6.862;2024-02-04T04:23:23;4.47;;;2.60;;
60169;SDS011;46042;49.444;6.862;2024-02-04T04:25:50;12.60;;;2.67;;
60169;SDS011;46042;49.444;6.862;2024-02-04T04:28:16;4.97;;;2.40;;
60169;SDS011;46042;49.444;6.862;2024-02-04T04:30:43;6.18;;;2.55;;
60169;SDS011;46042;49.444;6.862;2024-02-04T04:33:10;4.15;;;2.63;;
60169;SDS011;46042;49.444;6.862;2024-02-04T04:35:38;3.80;;;2.25;;
60169;SDS011;46042;49.444;6.862;2024-02-04T04:38:05;10.98;;;2.80;;
60169;SDS011;46042;49.444;6.862;2024-02-04T04:40:32;4.68;;;2.53;;
60169;SDS011;46042;49.444;6.862;2024-02-04T04:42:59;8.80;;;3.25;;
60169;SDS011;46042;49.444;6.862;2024-02-04T04:45:26;3.63;;;2.35;;
60169;SDS011;46042;49.444;6.862;2024-02-04T04:47:52;4.38;;;2.60;;
60169;SDS011;46042;49.444;6.862;2024-02-04T04:50:19;7.65;;;3.00;;
60169;SDS011;46042;49.444;6.862;2024-02-04T04:52:47;11.48;;;2.90;;
60169;SDS011;46042;49.444;6.862;2024-02-04T04:55:14;4.80;;;2.70;;
60169;SDS011;46042;49.444;6.862;2024-02-04T04:57:40;5.00;;;2.25;;
60169;SDS011;46042;49.444;6.862;2024-02-04T05:00:07;5.10;;;2.50;;
60169;SDS011;46042;49.444;6.862;2024-02-04T05:02:36;5.90;;;2.75;;
60169;SDS011;46042;49.444;6.862;2024-02-04T05:05:03;4.30;;;2.50;;
60169;SDS011;46042;49.444;6.862;2024-02-04T05:07:30;6.78;;;3.10;;
60169;SDS011;46042;49.444;6.862;2024-02-04T05:09:57;5.88;;;3.00;;
60169;SDS011;46042;49.444;6.862;2024-02-04T05:12:24;4.95;;;2.80;;
60169;SDS011;46042;49.444;6.862;2024-02-04T05:14:51;5.55;;;3.08;;
60169;SDS011;46042;49.444;6.862;2024-02-04T05:17:18;10.35;;;3.85;;
60169;SDS011;46042;49.444;6.862;2024-02-04T05:19:44;7.03;;;3.60;;
60169;SDS011;46042;49.444;6.862;2024-02-04T05:22:11;6.15;;;3.55;;
60169;SDS011;46042;49.444;6.862;2024-02-04T05:24:38;5.65;;;3.10;;
60169;SDS011;46042;49.444;6.862;2024-02-04T05:27:05;6.53;;;3.67;;
60169;SDS011;46042;49.444;6.862;2024-02-04T05:29:31;5.30;;;3.65;;
60169;SDS011;46042;49.444;6.862;2024-02-04T05:31:58;10.98;;;3.78;;
60169;SDS011;46042;49.444;6.862;2024-02-04T05:34:25;8.57;;;3.60;;
60169;SDS011;46042;49.444;6.862;2024-02-04T05:36:51;5.20;;;3.10;;
60169;SDS011;46042;49.444;6.862;2024-02-04T05:39:18;9.07;;;3.50;;
60169;SDS011;46042;49.444;6.862;2024-02-04T05:41:45;6.50;;;3.45;;
60169;SDS011;46042;49.444;6.862;2024-02-04T05:44:12;8.75;;;3.33;;
60169;SDS011;46042;49.444;6.862;2024-02-04T05:46:39;6.50;;;3.70;;
60169;SDS011;46042;49.444;6.862;2024-02-04T05:49:06;7.07;;;3.70;;
60169;SDS011;46042;49.444;6.862;2024-02-04T05:51:37;6.75;;;3.88;;
60169;SDS011;46042;49.444;6.862;2024-02-04T05:54:08;11.82;;;3.65;;
60169;SDS011;46042;49.444;6.862;2024-02-04T05:56:35;6.47;;;3.22;;
60169;SDS011;46042;49.444;6.862;2024-02-04T05:59:02;5.22;;;3.47;;
60169;SDS011;46042;49.444;6.862;2024-02-04T06:01:28;5.20;;;3.55;;
60169;SDS011;46042;49.444;6.862;2024-02-04T06:03:55;10.40;;;4.13;;
60169;SDS011;46042;49.444;6.862;2024-02-04T06:06:24;6.45;;;3.90;;
60169;SDS011;46042;49.444;6.862;2024-02-04T06:08:51;5.95;;;4.15;;
60169;SDS011;46042;49.444;6.862;2024-02-04T06:11:18;11.93;;;4.53;;
60169;SDS011;46042;49.444;6.862;2024-02-04T06:13:45;6.97;;;3.85;;
60169;SDS011;46042;49.444;6.862;2024-02-04T06:16:11;8.07;;;3.88;;
60169;SDS011;46042;49.444;6.862;2024-02-04T06:18:39;8.20;;;4.00;;
60169;SDS011;46042;49.444;6.862;2024-02-04T06:21:07;10.38;;;4.50;;
60169;SDS011;46042;49.444;6.862;2024-02-04T06:23:34;9.70;;;4.30;;
60169;SDS011;46042;49.444;6.862;2024-02-04T06:26:01;9.13;;;4.18;;
60169;SDS011;46042;49.444;6.862;2024-02-04T06:28:28;6.57;;;3.80;;
60169;SDS011;46042;49.444;6.862;2024-02-04T06:30:55;8.23;;;4.45;;
60169;SDS011;46042;49.444;6.862;2024-02-04T06:33:23;7.60;;;3.95;;
60169;SDS011;46042;49.444;6.862;2024-02-04T06:35:51;7.97;;;3.75;;
60169;SDS011;46042;49.444;6.862;2024-02-04T06:38:18;7.47;;;4.13;;
60169;SDS011;46042;49.444;6.862;2024-02-04T06:40:45;8.55;;;4.47;;
60169;SDS011;46042;49.444;6.862;2024-02-04T06:43:11;6.03;;;3.45;;
60169;SDS011;46042;49.444;6.862;2024-02-04T06:45:38;9.52;;;3.85;;
60169;SDS011;46042;49.444;6.862;2024-02-04T06:48:05;8.48;;;3.75;;
60169;SDS011;46042;49.444;6.862;2024-02-04T06:50:32;7.32;;;4.13;;
60169;SDS011;46042;49.444;6.862;2024-02-04T06:52:59;9.48;;;5.00;;
60169;SDS011;46042;49.444;6.862;2024-02-04T06:55:29;7.57;;;4.05;;
60169;SDS011;46042;49.444;6.862;2024-02-04T06:57:55;6.30;;;3.95;;
60169;SDS011;46042;49.444;6.862;2024-02-04T07:00:22;11.18;;;4.13;;
60169;SDS011;46042;49.444;6.862;2024-02-04T07:02:49;7.85;;;3.70;;
60169;SDS011;46042;49.444;6.862;2024-02-04T07:05:15;9.57;;;4.00;;
60169;SDS011;46042;49.444;6.862;2024-02-04T07:07:42;6.47;;;4.50;;
60169;SDS011;46042;49.444;6.862;2024-02-04T07:10:09;7.88;;;4.18;;
60169;SDS011;46042;49.444;6.862;2024-02-04T07:12:36;10.07;;;3.72;;
60169;SDS011;46042;49.444;6.862;2024-02-04T07:15:03;8.35;;;3.88;;
60169;SDS011;46042;49.444;6.862;2024-02-04T07:17:30;8.48;;;3.95;;
60169;SDS011;46042;49.444;6.862;2024-02-04T07:19:57;10.35;;;3.67;;
60169;SDS011;46042;49.444;6.862;2024-02-04T07:22:24;8.45;;;4.10;;
60169;SDS011;46042;49.444;6.862;2024-02-04T07:24:51;9.25;;;4.35;;
60169;SDS011;46042;49.444;6.862;2024-02-04T07:27:17;9.02;;;4.03;;
60169;SDS011;46042;49.444;6.862;2024-02-04T07:29:45;6.43;;;3.30;;
60169;SDS011;46042;49.444;6.862;2024-02-04T07:32:13;8.20;;;4.00;;
60169;SDS011;46042;49.444;6.862;2024-02-04T07:34:41;5.60;;;3.42;;
60169;SDS011;46042;49.444;6.862;2024-02-04T07:37:08;5.70;;;3.60;;
60169;SDS011;46042;49.444;6.862;2024-02-04T07:39:34;6.88;;;3.60;;
60169;SDS011;46042;49.444;6.862;2024-02-04T07:42:01;9.23;;;4.35;;
60169;SDS011;46042;49.444;6.862;2024-02-04T07:44:28;7.07;;;3.60;;
60169;SDS011;46042;49.444;6.862;2024-02-04T07:46:56;6.72;;;3.60;;
60169;SDS011;46042;49.444;6.862;2024-02-04T07:49:22;8.85;;;4.47;;
60169;SDS011;46042;49.444;6.862;2024-02-04T07:51:49;13.23;;;4.13;;
60169;SDS011;46042;49.444;6.862;2024-02-04T07:54:17;9.10;;;3.88;;
60169;SDS011;46042;49.444;6.862;2024-02-04T07:56:44;13.40;;;5.65;;
60169;SDS011;46042;49.444;6.862;2024-02-04T07:59:10;9.18;;;4.22;;
60169;SDS011;46042;49.444;6.862;2024-02-04T08:01:37;9.02;;;4.00;;
60169;SDS011;46042;49.444;6.862;2024-02-04T08:04:04;6.22;;;3.38;;
60169;SDS011;46042;49.444;6.862;2024-02-04T08:06:32;7.68;;;3.67;;
60169;SDS011;46042;49.444;6.862;2024-02-04T08:09:01;7.70;;;3.35;;
60169;SDS011;46042;49.444;6.862;2024-02-04T08:11:28;11.80;;;3.55;;
60169;SDS011;46042;49.444;6.862;2024-02-04T08:13:54;9.63;;;4.55;;
60169;SDS011;46042;49.444;6.862;2024-02-04T08:16:21;7.60;;;4.10;;
60169;SDS011;46042;49.444;6.862;2024-02-04T08:18:48;6.85;;;3.15;;
60169;SDS011;46042;49.444;6.862;2024-02-04T08:21:15;6.00;;;3.25;;
60169;SDS011;46042;49.444;6.862;2024-02-04T08:23:42;6.90;;;3.67;;
60169;SDS011;46042;49.444;6.862;2024-02-04T08:26:08;8.35;;;2.67;;
60169;SDS011;46042;49.444;6.862;2024-02-04T08:28:35;9.70;;;4.75;;
60169;SDS011;46042;49.444;6.862;2024-02-04T08:31:02;12.77;;;3.38;;
60169;SDS011;46042;49.444;6.862;2024-02-04T08:33:28;11.70;;;5.32;;
60169;SDS011;46042;49.444;6.862;2024-02-04T08:35:56;6.28;;;3.42;;
60169;SDS011;46042;49.444;6.862;2024-02-04T08:38:22;10.82;;;4.93;;
60169;SDS011;46042;49.444;6.862;2024-02-04T08:40:49;13.80;;;6.03;;
60169;SDS011;46042;49.444;6.862;2024-02-04T08:43:16;8.05;;;3.50;;
60169;SDS011;46042;49.444;6.862;2024-02-04T08:45:42;13.55;;;5.63;;
60169;SDS011;46042;49.444;6.862;2024-02-04T08:48:09;10.30;;;4.40;;
60169;SDS011;46042;49.444;6.862;2024-02-04T08:50:36;8.48;;;4.47;;
60169;SDS011;46042;49.444;6.862;2024-02-04T08:53:03;7.05;;;3.58;;
60169;SDS011;46042;49.444;6.862;2024-02-04T08:55:30;6.40;;;3.20;;
60169;SDS011;46042;49.444;6.862;2024-02-04T08:57:56;7.38;;;3.60;;
60169;SDS011;46042;49.444;6.862;2024-02-04T09:00:23;11.95;;;3.85;;
60169;SDS011;46042;49.444;6.862;2024-02-04T09:02:50;5.47;;;3.03;;
60169;SDS011;46042;49.444;6.862;2024-02-04T09:05:17;5.97;;;3.55;;
60169;SDS011;46042;49.444;6.862;2024-02-04T09:07:45;7.35;;;4.18;;
60169;SDS011;46042;49.444;6.862;2024-02-04T09:10:12;9.05;;;3.88;;
60169;SDS011;46042;49.444;6.862;2024-02-04T09:12:39;7.72;;;3.70;;
60169;SDS011;46042;49.444;6.862;2024-02-04T09:15:06;14.10;;;3.28;;
60169;SDS011;46042;49.444;6.862;2024-02-04T09:17:33;7.45;;;3.60;;
60169;SDS011;46042;49.444;6.862;2024-02-04T09:20:00;5.05;;;2.63;;
60169;SDS011;46042;49.444;6.862;2024-02-04T09:22:28;5.60;;;3.08;;
60169;SDS011;46042;49.444;6.862;2024-02-04T09:24:54;5.88;;;3.70;;
60169;SDS011;46042;49.444;6.862;2024-02-04T09:27:21;8.30;;;3.20;;
60169;SDS011;46042;49.444;6.862;2024-02-04T09:29:48;13.75;;;3.60;;
60169;SDS011;46042;49.444;6.862;2024-02-04T09:32:15;5.50;;;3.13;;
60169;SDS011;46042;49.444;6.862;2024-02-04T09:34:44;5.75;;;3.40;;
60169;SDS011;46042;49.444;6.862;2024-02-04T09:37:11;6.78;;;3.78;;
60169;SDS011;46042;49.444;6.862;2024-02-04T09:39:38;13.93;;;5.90;;
60169;SDS011;46042;49.444;6.862;2024-02-04T09:42:05;9.18;;;3.65;;
60169;SDS011;46042;49.444;6.862;2024-02-04T09:44:32;6.78;;;3.53;;
60169;SDS011;46042;49.444;6.862;2024-02-04T09:46:59;8.18;;;4.53;;
60169;SDS011;46042;49.444;6.862;2024-02-04T09:49:27;11.05;;;6.88;;
60169;SDS011;46042;49.444;6.862;2024-02-04T09:51:56;8.68;;;4.38;;
60169;SDS011;46042;49.444;6.862;2024-02-04T09:54:30;9.00;;;4.88;;
60169;SDS011;46042;49.444;6.862;2024-02-04T09:56:58;9.73;;;5.13;;
60169;SDS011;46042;49.444;6.862;2024-02-04T09:59:25;7.53;;;3.72;;
60169;SDS011;46042;49.444;6.862;2024-02-04T10:01:52;11.88;;;5.13;;
60169;SDS011;46042;49.444;6.862;2024-02-04T10:04:19;7.63;;;3.80;;
60169;SDS011;46042;49.444;6.862;2024-02-04T10:06:46;9.13;;;4.05;;
60169;SDS011;46042;49.444;6.862;2024-02-04T10:09:14;8.55;;;4.05;;
60169;SDS011;46042;49.444;6.862;2024-02-04T10:11:41;12.55;;;3.75;;
60169;SDS011;46042;49.444;6.862;2024-02-04T10:14:07;11.38;;;3.83;;
60169;SDS011;46042;49.444;6.862;2024-02-04T10:16:37;7.28;;;3.88;;
60169;SDS011;46042;49.444;6.862;2024-02-04T10:19:04;9.10;;;4.17;;
60169;SDS011;46042;49.444;6.862;2024-02-04T10:21:31;5.93;;;3.10;;
60169;SDS011;46042;49.444;6.862;2024-02-04T10:23:58;9.70;;;3.83;;
60169;SDS011;46042;49.444;6.862;2024-02-04T10:26:28;9.77;;;4.13;;
60169;SDS011;46042;49.444;6.862;2024-02-04T10:29:01;8.70;;;3.38;;
60169;SDS011;46042;49.444;6.862;2024-02-04T10:31:28;8.52;;;3.42;;
60169;SDS011;46042;49.444;6.862;2024-02-04T10:33:54;7.95;;;3.05;;
60169;SDS011;46042;49.444;6.862;2024-02-04T10:36:21;5.35;;;3.05;;
60169;SDS011;46042;49.444;6.862;2024-02-04T10:38:48;6.05;;;2.92;;
60169;SDS011;46042;49.444;6.862;2024-02-04T10:41:15;7.72;;;3.17;;
60169;SDS011;46042;49.444;6.862;2024-02-04T10:43:43;5.70;;;2.70;;
60169;SDS011;46042;49.444;6.862;2024-02-04T10:46:20;5.75;;;2.70;;
60169;SDS011;46042;49.444;6.862;2024-02-04T10:48:55;6.55;;;2.83;;
60169;SDS011;46042;49.444;6.862;2024-02-04T10:51:25;7.13;;;3.60;;
60169;SDS011;46042;49.444;6.862;2024-02-04T10:53:54;5.10;;;3.03;;
60169;SDS011;46042;49.444;6.862;2024-02-04T10:56:40;6.97;;;2.90;;
60169;SDS011;46042;49.444;6.862;2024-02-04T10:59:15;3.47;;;2.25;;
60169;SDS011;46042;49.444;6.862;2024-02-04T11:01:46;5.03;;;2.70;;
60169;SDS011;46042;49.444;6.862;2024-02-04T11:04:16;4.50;;;3.13;;
60169;SDS011;46042;49.444;6.862;2024-02-04T11:06:44;7.60;;;2.80;;
60169;SDS011;46042;49.444;6.862;2024-02-04T11:09:12;3.70;;;2.25;;
60169;SDS011;46042;49.444;6.862;2024-02-04T11:11:40;6.35;;;2.35;;
60169;SDS011;46042;49.444;6.862;2024-02-04T11:14:09;4.30;;;2.70;;
60169;SDS011;46042;49.444;6.862;2024-02-04T11:28:03;3.38;;;2.40;;
60169;SDS011;46042;49.444;6.862;2024-02-04T11:30:34;4.25;;;2.47;;
60169;SDS011;46042;49.444;6.862;2024-02-04T11:33:03;5.20;;;2.42;;
60169;SDS011;46042;49.444;6.862;2024-02-04T11:35:32;6.50;;;3.30;;
60169;SDS011;46042;49.444;6.862;2024-02-04T11:38:00;5.03;;;2.40;;
60169;SDS011;46042;49.444;6.862;2024-02-04T11:40:31;6.38;;;2.70;;
60169;SDS011;46042;49.444;6.862;2024-02-04T11:43:05;5.18;;;2.97;;
60169;SDS011;46042;49.444;6.862;2024-02-04T11:45:32;4.38;;;2.70;;
60169;SDS011;46042;49.444;6.862;2024-02-04T11:48:06;4.35;;;2.17;;
60169;SDS011;46042;49.444;6.862;2024-02-04T11:50:34;3.17;;;2.05;;
60169;SDS011;46042;49.444;6.862;2024-02-04T11:53:12;5.47;;;2.30;;
60169;SDS011;46042;49.444;6.862;2024-02-04T11:55:40;4.13;;;2.60;;
60169;SDS011;46042;49.444;6.862;2024-02-04T11:58:11;4.65;;;2.38;;
60169;SDS011;46042;49.444;6.862;2024-02-04T12:00:42;5.18;;;2.30;;
60169;SDS011;46042;49.444;6.862;2024-02-04T12:05:37;3.70;;;2.30;;
60169;SDS011;46042;49.444;6.862;2024-02-04T12:10:36;6.82;;;2.33;;
60169;SDS011;46042;49.444;6.862;2024-02-04T12:13:05;4.93;;;2.58;;
60169;SDS011;46042;49.444;6.862;2024-02-04T12:15:35;4.75;;;2.72;;
60169;SDS011;46042;49.444;6.862;2024-02-04T12:18:10;5.03;;;2.45;;
60169;SDS011;46042;49.444;6.862;2024-02-04T12:20:38;4.13;;;2.60;;
60169;SDS011;46042;49.444;6.862;2024-02-04T12:23:07;3.00;;;1.98;;
60169;SDS011;46042;49.444;6.862;2024-02-04T12:25:34;3.70;;;2.25;;
60169;SDS011;46042;49.444;6.862;2024-02-04T12:28:04;6.07;;;2.95;;
60169;SDS011;46042;49.444;6.862;2024-02-04T12:30:31;6.32;;;2.80;;
60169;SDS011;46042;49.444;6.862;2024-02-04T12:33:00;3.60;;;2.10;;
60169;SDS011;46042;49.444;6.862;2024-02-04T12:35:33;3.03;;;2.20;;
60169;SDS011;46042;49.444;6.862;2024-02-04T12:38:00;3.45;;;1.90;;
60169;SDS011;46042;49.444;6.862;2024-02-04T12:40:30;3.67;;;2.40;;
60169;SDS011;46042;49.444;6.862;2024-02-04T12:43:01;3.63;;;1.80;;
60169;SDS011;46042;49.444;6.862;2024-02-04T12:45:32;2.55;;;1.80;;
60169;SDS011;46042;49.444;6.862;2024-02-04T12:47:59;2.22;;;1.70;;
60169;SDS011;46042;49.444;6.862;2024-02-04T12:50:26;2.08;;;1.77;;
60169;SDS011;46042;49.444;6.862;2024-02-04T12:55:34;3.92;;;1.90;;
60169;SDS011;46042;49.444;6.862;2024-02-04T12:58:06;1.67;;;1.58;;
60169;SDS011;46042;49.444;6.862;2024-02-04T13:00:35;5.43;;;1.83;;
60169;SDS011;46042;49.444;6.862;2024-02-04T13:03:03;4.30;;;1.95;;
60169;SDS011;46042;49.444;6.862;2024-02-04T13:05:31;2.92;;;2.00;;
60169;SDS011;46042;49.444;6.862;2024-02-04T13:08:00;2.90;;;1.90;;
60169;SDS011;46042;49.444;6.862;2024-02-04T13:10:30;4.53;;;2.53;;
60169;SDS011;46042;49.444;6.862;2024-02-04T13:13:07;3.00;;;2.20;;
60169;SDS011;46042;49.444;6.862;2024-02-04T13:15:39;4.25;;;2.50;;
60169;SDS011;46042;49.444;6.862;2024-02-04T13:18:13;2.28;;;1.65;;
60169;SDS011;46042;49.444;6.862;2024-02-04T13:20:43;2.90;;;1.80;;
60169;SDS011;46042;49.444;6.862;2024-02-04T13:23:11;4.35;;;2.00;;
60169;SDS011;46042;49.444;6.862;2024-02-04T13:25:38;4.68;;;2.38;;
60169;SDS011;46042;49.444;6.862;2024-02-04T13:28:05;2.42;;;1.73;;
60169;SDS011;46042;49.444;6.862;2024-02-04T13:30:32;4.82;;;2.35;;
60169;SDS011;46042;49.444;6.862;2024-02-04T13:32:59;5.68;;;2.13;;
60169;SDS011;46042;49.444;6.862;2024-02-04T13:35:28;8.65;;;3.15;;
60169;SDS011;46042;49.444;6.862;2024-02-04T13:37:55;4.60;;;2.25;;
60169;SDS011;46042;49.444;6.862;2024-02-04T13:40:22;2.13;;;1.52;;
60169;SDS011;46042;49.444;6.862;2024-02-04T13:42:51;5.80;;;2.00;;
60169;SDS011;46042;49.444;6.862;2024-02-04T13:45:18;3.53;;;2.42;;
60169;SDS011;46042;49.444;6.862;2024-02-04T13:47:45;2.55;;;1.70;;
60169;SDS011;46042;49.444;6.862;2024-02-04T13:50:12;3.88;;;1.98;;
60169;SDS011;46042;49.444;6.862;2024-02-04T13:52:40;6.15;;;2.65;;
60169;SDS011;46042;49.444;6.862;2024-02-04T13:55:07;6.55;;;2.80;;
60169;SDS011;46042;49.444;6.862;2024-02-04T13:57:35;5.15;;;2.75;;
60169;SDS011;46042;49.444;6.862;2024-02-04T14:00:03;3.75;;;2.28;;
60169;SDS011;46042;49.444;6.862;2024-02-04T14:02:31;5.63;;;2.00;;
60169;SDS011;46042;49.444;6.862;2024-02-04T14:04:58;1.85;;;1.52;;
60169;SDS011;46042;49.444;6.862;2024-02-04T14:07:25;3.83;;;2.00;;
60169;SDS011;46042;49.444;6.862;2024-02-04T14:09:53;3.00;;;1.85;;
60169;SDS011;46042;49.444;6.862;2024-02-04T14:12:20;3.22;;;1.98;;
60169;SDS011;46042;49.444;6.862;2024-02-04T14:14:47;2.72;;;1.90;;
60169;SDS011;46042;49.444;6.862;2024-02-04T14:17:14;2.72;;;1.60;;
60169;SDS011;46042;49.444;6.862;2024-02-04T14:19:41;2.45;;;1.70;;
60169;SDS011;46042;49.444;6.862;2024-02-04T14:22:08;4.97;;;2.13;;
60169;SDS011;46042;49.444;6.862;2024-02-04T14:24:35;3.50;;;2.00;;
60169;SDS011;46042;49.444;6.862;2024-02-04T14:27:04;2.47;;;1.63;;
60169;SDS011;46042;49.444;6.862;2024-02-04T14:29:31;1.98;;;1.70;;
60169;SDS011;46042;49.444;6.862;2024-02-04T14:31:57;2.50;;;1.80;;
60169;SDS011;46042;49.444;6.862;2024-02-04T14:34:24;1.92;;;1.52;;
60169;SDS011;46042;49.444;6.862;2024-02-04T14:36:51;1.60;;;1.30;;
60169;SDS011;46042;49.444;6.862;2024-02-04T14:39:18;5.05;;;2.20;;
60169;SDS011;46042;49.444;6.862;2024-02-04T14:41:45;5.78;;;1.95;;
60169;SDS011;46042;49.444;6.862;2024-02-04T14:44:12;3.30;;;1.85;;
60169;SDS011;46042;49.444;6.862;2024-02-04T14:46:39;3.53;;;1.83;;
60169;SDS011;46042;49.444;6.862;2024-02-04T14:49:07;2.33;;;1.77;;
60169;SDS011;46042;49.444;6.862;2024-02-04T14:51:34;3.85;;;1.80;;
60169;SDS011;46042;49.444;6.862;2024-02-04T14:54:05;5.38;;;1.98;;
60169;SDS011;46042;49.444;6.862;2024-02-04T14:56:38;3.42;;;2.10;;
60169;SDS011;46042;49.444;6.862;2024-02-04T14:59:10;2.20;;;1.60;;
60169;SDS011;46042;49.444;6.862;2024-02-04T15:01:48;2.83;;;1.70;;
60169;SDS011;46042;49.444;6.862;2024-02-04T15:04:17;2.30;;;1.75;;
60169;SDS011;46042;49.444;6.862;2024-02-04T15:06:44;1.52;;;1.42;;
60169;SDS011;46042;49.444;6.862;2024-02-04T15:09:11;2.47;;;2.00;;
60169;SDS011;46042;49.444;6.862;2024-02-04T15:11:38;2.60;;;1.88;;
60169;SDS011;46042;49.444;6.862;2024-02-04T15:14:05;4.85;;;1.90;;